FDX4558 EHAM-KATL
Flight info
| Callsign | FDX4558 |
|---|---|
| Flight time | N/A |
| Altitude | 30000 |
| Route | BERGI L602 NALAX L46 GETNO DCT NIBOG DCT RESNO/M082F320 DCT 56N020W 56N030W 56N040W 55N050W DCT LOMSI/N0482F320 N662C TOPPS/N0469F340 DCT ENE DCT BAF Q448 PTW J48 MOL DCT FLASK OZZZI1 |
| Aircraft | B77L/H-SDE1E2E3FGHIJ2J3J4J5M1RWXY/LB1D1 |
Departure
| Time | 2026-05-04 16:50 |
|---|---|
| Airport | Amsterdam Airport Schiphol (EHAM) |
Arrival
| Time | N/A |
|---|---|
| Airport | Hartsfield Jackson Atlanta International Airport (KATL) |
| Time | Latitude | Longitude | Altitude | Speed | Heading |
|---|---|---|---|---|---|
| 2026-05-04 16:05 | 52.31276 | 4.75321 | 1 ft | 0 kts | 266° |
| 2026-05-04 16:31 | 52.31278 | 4.75359 | -20 ft | 2 kts | 266° |
| 2026-05-04 16:32 | 52.31277 | 4.75429 | 5 ft | 2 kts | 301° |
| 2026-05-04 16:33 | 52.31262 | 4.75451 | 6 ft | 0 kts | 0° |
| 2026-05-04 16:36 | 52.31264 | 4.75451 | 6 ft | 1 kts | 0° |
| 2026-05-04 16:37 | 52.31312 | 4.75451 | 2 ft | 8 kts | 359° |
| 2026-05-04 16:37 | 52.31377 | 4.75444 | 0 ft | 11 kts | 351° |
| 2026-05-04 16:37 | 52.31420 | 4.75226 | -2 ft | 14 kts | 268° |
| 2026-05-04 16:38 | 52.31411 | 4.74900 | 2 ft | 14 kts | 267° |
| 2026-05-04 16:39 | 52.31482 | 4.74564 | 5 ft | 11 kts | 274° |
| 2026-05-04 16:39 | 52.31513 | 4.74310 | 4 ft | 13 kts | 331° |
| 2026-05-04 16:40 | 52.31695 | 4.74308 | 4 ft | 14 kts | 3° |
| 2026-05-04 16:40 | 52.31894 | 4.74327 | -1 ft | 12 kts | 4° |
| 2026-05-04 16:41 | 52.32027 | 4.74269 | -2 ft | 11 kts | 290° |
| 2026-05-04 16:41 | 52.32044 | 4.73887 | 2 ft | 11 kts | 269° |
| 2026-05-04 16:42 | 52.32059 | 4.73506 | 6 ft | 10 kts | 274° |
| 2026-05-04 16:43 | 52.32131 | 4.73298 | 4 ft | 13 kts | 319° |
| 2026-05-04 16:43 | 52.32278 | 4.73090 | 1 ft | 16 kts | 319° |
| 2026-05-04 16:43 | 52.32365 | 4.72968 | 1 ft | 16 kts | 319° |
| 2026-05-04 16:44 | 52.32707 | 4.72468 | 2 ft | 18 kts | 312° |
| 2026-05-04 16:45 | 52.32840 | 4.72081 | 1 ft | 16 kts | 268° |
| 2026-05-04 16:46 | 52.32982 | 4.71703 | 2 ft | 14 kts | 311° |
| 2026-05-04 16:46 | 52.33072 | 4.71478 | 4 ft | 12 kts | 281° |
| 2026-05-04 16:47 | 52.32960 | 4.71241 | 1 ft | 15 kts | 222° |
| 2026-05-04 16:47 | 52.32868 | 4.71040 | 0 ft | 0 kts | 266° |
| 2026-05-04 16:48 | 52.32867 | 4.71013 | 0 ft | 6 kts | 267° |
| 2026-05-04 16:48 | 52.32888 | 4.70915 | 1 ft | 11 kts | 320° |
| 2026-05-04 16:49 | 52.33454 | 4.70940 | 1 ft | 107 kts | 3° |
| 2026-05-04 16:49 | 52.35831 | 4.71254 | 292 ft | 208 kts | 5° |
| 2026-05-04 16:50 | 52.38786 | 4.71550 | 2113 ft | 214 kts | 2° |
| 2026-05-04 16:50 | 52.41947 | 4.71671 | 3348 ft | 242 kts | 359° |
| 2026-05-04 16:51 | 52.45367 | 4.71538 | 4446 ft | 247 kts | 356° |
| 2026-05-04 16:51 | 52.47062 | 4.71033 | 4786 ft | 252 kts | 329° |
| 2026-05-04 16:51 | 52.49237 | 4.66529 | 5448 ft | 264 kts | 289° |
| 2026-05-04 16:52 | 52.50789 | 4.61023 | 6598 ft | 268 kts | 303° |
| 2026-05-04 16:52 | 52.51937 | 4.58596 | 7201 ft | 270 kts | 309° |
| 2026-05-04 16:53 | 52.54830 | 4.54608 | 8113 ft | 280 kts | 330° |
| 2026-05-04 16:53 | 52.59982 | 4.49932 | 9861 ft | 286 kts | 328° |
| 2026-05-04 16:54 | 52.61722 | 4.48316 | 10248 ft | 294 kts | 328° |
| 2026-05-04 16:55 | 52.69029 | 4.41457 | 12367 ft | 306 kts | 328° |
| 2026-05-04 16:55 | 52.72750 | 4.37938 | 13448 ft | 311 kts | 328° |
| 2026-05-04 16:56 | 52.75873 | 4.33275 | 14228 ft | 309 kts | 297° |
| 2026-05-04 16:56 | 52.79033 | 4.23818 | 15629 ft | 315 kts | 297° |
| 2026-05-04 16:57 | 52.80096 | 4.20637 | 16093 ft | 317 kts | 297° |
| 2026-05-04 16:57 | 52.82254 | 4.14194 | 17034 ft | 323 kts | 297° |
| 2026-05-04 16:58 | 52.85541 | 4.04399 | 18412 ft | 329 kts | 297° |
| 2026-05-04 16:58 | 52.86655 | 4.01075 | 18804 ft | 331 kts | 297° |
| 2026-05-04 16:59 | 52.88896 | 3.94380 | 19663 ft | 333 kts | 297° |
| 2026-05-04 17:00 | 52.93473 | 3.80642 | 20925 ft | 352 kts | 296° |
| 2026-05-04 17:00 | 52.97035 | 3.69910 | 22256 ft | 357 kts | 296° |
| 2026-05-04 17:01 | 52.99429 | 3.62676 | 23105 ft | 361 kts | 295° |
| 2026-05-04 17:01 | 53.01855 | 3.55329 | 23876 ft | 365 kts | 295° |
| 2026-05-04 17:02 | 53.04336 | 3.47848 | 24501 ft | 371 kts | 295° |
| 2026-05-04 17:02 | 53.06853 | 3.40252 | 25119 ft | 377 kts | 295° |
| 2026-05-04 17:03 | 53.08117 | 3.36424 | 25426 ft | 380 kts | 295° |
| 2026-05-04 17:03 | 53.09336 | 3.32506 | 25720 ft | 381 kts | 290° |
| 2026-05-04 17:03 | 53.10983 | 3.24195 | 26315 ft | 382 kts | 279° |
| 2026-05-04 17:04 | 53.12127 | 3.15476 | 26923 ft | 388 kts | 279° |
| 2026-05-04 17:04 | 53.13267 | 3.06666 | 27503 ft | 393 kts | 279° |
| 2026-05-04 17:05 | 53.14442 | 2.97671 | 28084 ft | 399 kts | 279° |
| 2026-05-04 17:05 | 53.15632 | 2.88566 | 28647 ft | 405 kts | 279° |
| 2026-05-04 17:06 | 53.16835 | 2.79325 | 29221 ft | 410 kts | 279° |
| 2026-05-04 17:06 | 53.17440 | 2.74654 | 29491 ft | 413 kts | 279° |
| 2026-05-04 17:07 | 53.18655 | 2.65224 | 29955 ft | 420 kts | 279° |
| 2026-05-04 17:07 | 53.19062 | 2.62053 | 29988 ft | 424 kts | 279° |
| 2026-05-04 17:07 | 53.20491 | 2.50872 | 30016 ft | 421 kts | 279° |
| 2026-05-04 17:08 | 53.22287 | 2.36573 | 30043 ft | 421 kts | 279° |
| 2026-05-04 17:09 | 53.23479 | 2.26967 | 30040 ft | 423 kts | 279° |
| 2026-05-04 17:09 | 53.24666 | 2.17352 | 30029 ft | 423 kts | 279° |
| 2026-05-04 17:10 | 53.27599 | 1.93309 | 30051 ft | 428 kts | 280° |
| 2026-05-04 17:11 | 53.28791 | 1.83411 | 30056 ft | 439 kts | 280° |
| 2026-05-04 17:11 | 53.30000 | 1.73297 | 30058 ft | 450 kts | 280° |
| 2026-05-04 17:12 | 53.30615 | 1.68125 | 30061 ft | 456 kts | 280° |
| 2026-05-04 17:13 | 53.33929 | 1.41441 | 30054 ft | 480 kts | 283° |
| 2026-05-04 17:14 | 53.36392 | 1.25054 | 30055 ft | 491 kts | 283° |
| 2026-05-04 17:14 | 53.37212 | 1.19475 | 30057 ft | 494 kts | 283° |
| 2026-05-04 17:15 | 53.39633 | 1.02561 | 30039 ft | 501 kts | 283° |
| 2026-05-04 17:16 | 53.42846 | 0.79724 | 30051 ft | 505 kts | 283° |
| 2026-05-04 17:17 | 53.46032 | 0.56765 | 30050 ft | 506 kts | 283° |
| 2026-05-04 17:18 | 53.48922 | 0.35656 | 30046 ft | 507 kts | 284° |
| 2026-05-04 17:19 | 53.52072 | 0.12491 | 30048 ft | 509 kts | 284° |
| 2026-05-04 17:20 | 53.55139 | -0.10698 | 30047 ft | 510 kts | 283° |
| 2026-05-04 17:20 | 53.57420 | -0.28220 | 30053 ft | 511 kts | 283° |
| 2026-05-04 17:21 | 53.60423 | -0.51536 | 30052 ft | 511 kts | 283° |
| 2026-05-04 17:22 | 53.61911 | -0.63215 | 30042 ft | 511 kts | 283° |
| 2026-05-04 17:23 | 53.64860 | -0.86659 | 30048 ft | 511 kts | 283° |
| 2026-05-04 17:24 | 53.67043 | -1.04244 | 30056 ft | 510 kts | 283° |
| 2026-05-04 17:25 | 53.69915 | -1.27686 | 30041 ft | 510 kts | 283° |
| 2026-05-04 17:26 | 53.72716 | -1.51152 | 30030 ft | 510 kts | 282° |
| 2026-05-04 17:27 | 53.75957 | -1.80524 | 30024 ft | 509 kts | 281° |
| 2026-05-04 17:28 | 53.78482 | -2.04129 | 30032 ft | 509 kts | 281° |
| 2026-05-04 17:29 | 53.82184 | -2.39499 | 30039 ft | 510 kts | 281° |
| 2026-05-04 17:31 | 53.85190 | -2.69037 | 30065 ft | 509 kts | 281° |
| 2026-05-04 17:32 | 53.88120 | -2.98583 | 30074 ft | 508 kts | 281° |
| 2026-05-04 17:33 | 53.90399 | -3.22114 | 30067 ft | 507 kts | 281° |
| 2026-05-04 17:34 | 53.92641 | -3.45716 | 30062 ft | 505 kts | 281° |
| 2026-05-04 17:35 | 53.97714 | -3.73963 | 30059 ft | 501 kts | 290° |
| 2026-05-04 17:36 | 53.99919 | -3.85196 | 30063 ft | 500 kts | 289° |
| 2026-05-04 17:36 | 54.02086 | -3.96441 | 30064 ft | 500 kts | 289° |
| 2026-05-04 17:37 | 54.04222 | -4.07646 | 30062 ft | 499 kts | 289° |
| 2026-05-04 17:37 | 54.06353 | -4.18884 | 30071 ft | 497 kts | 289° |
| 2026-05-04 17:38 | 54.08455 | -4.30023 | 30073 ft | 496 kts | 289° |
| 2026-05-04 17:38 | 54.10552 | -4.41203 | 30074 ft | 495 kts | 289° |
| 2026-05-04 17:39 | 54.13674 | -4.57964 | 30078 ft | 493 kts | 289° |
| 2026-05-04 17:39 | 54.15734 | -4.69108 | 30076 ft | 492 kts | 289° |
| 2026-05-04 17:40 | 54.17776 | -4.80223 | 30075 ft | 491 kts | 288° |
| 2026-05-04 17:40 | 54.19812 | -4.91372 | 30076 ft | 490 kts | 288° |
| 2026-05-04 17:41 | 54.21833 | -5.02507 | 30073 ft | 490 kts | 288° |
| 2026-05-04 17:41 | 54.23842 | -5.13640 | 30073 ft | 490 kts | 288° |
| 2026-05-04 17:42 | 54.25835 | -5.24758 | 30075 ft | 489 kts | 288° |
| 2026-05-04 17:42 | 54.27820 | -5.35892 | 30081 ft | 489 kts | 288° |
| 2026-05-04 17:43 | 54.29789 | -5.47008 | 30080 ft | 488 kts | 288° |
| 2026-05-04 17:43 | 54.31753 | -5.58162 | 30080 ft | 488 kts | 287° |
| 2026-05-04 17:44 | 54.33686 | -5.69210 | 30077 ft | 488 kts | 287° |
| 2026-05-04 17:44 | 54.35625 | -5.80360 | 30075 ft | 487 kts | 287° |
| 2026-05-04 17:45 | 54.37551 | -5.91509 | 30076 ft | 487 kts | 287° |
| 2026-05-04 17:45 | 54.39451 | -6.02574 | 30077 ft | 486 kts | 287° |
| 2026-05-04 17:46 | 54.41352 | -6.13711 | 30076 ft | 485 kts | 287° |
| 2026-05-04 17:46 | 54.43239 | -6.24838 | 30079 ft | 484 kts | 287° |
| 2026-05-04 17:47 | 54.45114 | -6.35968 | 30075 ft | 484 kts | 286° |
| 2026-05-04 17:47 | 54.46972 | -6.47063 | 30077 ft | 483 kts | 286° |
| 2026-05-04 17:48 | 54.48821 | -6.58181 | 30079 ft | 482 kts | 286° |
| 2026-05-04 17:48 | 54.50642 | -6.69197 | 30076 ft | 482 kts | 286° |
| 2026-05-04 17:49 | 54.52469 | -6.80319 | 30080 ft | 481 kts | 286° |
| 2026-05-04 17:49 | 54.54278 | -6.91409 | 30080 ft | 481 kts | 286° |
| 2026-05-04 17:50 | 54.56081 | -7.02527 | 30088 ft | 481 kts | 285° |
| 2026-05-04 17:50 | 54.57863 | -7.13590 | 30085 ft | 481 kts | 285° |
| 2026-05-04 17:51 | 54.59643 | -7.24719 | 30088 ft | 481 kts | 285° |
| 2026-05-04 17:51 | 54.61412 | -7.35844 | 30087 ft | 481 kts | 285° |
| 2026-05-04 17:52 | 54.63165 | -7.46950 | 30092 ft | 480 kts | 285° |
| 2026-05-04 17:52 | 54.64916 | -7.58116 | 30092 ft | 480 kts | 285° |
| 2026-05-04 17:53 | 54.66640 | -7.69178 | 30093 ft | 480 kts | 285° |
| 2026-05-04 17:53 | 54.68367 | -7.80340 | 30097 ft | 480 kts | 285° |
| 2026-05-04 17:54 | 54.70080 | -7.91488 | 30094 ft | 479 kts | 285° |
| 2026-05-04 17:54 | 54.71780 | -8.02621 | 30092 ft | 479 kts | 285° |
| 2026-05-04 17:55 | 54.73471 | -8.13774 | 30099 ft | 478 kts | 284° |
| 2026-05-04 17:55 | 54.75146 | -8.24902 | 30101 ft | 478 kts | 284° |
| 2026-05-04 17:56 | 54.76803 | -8.35983 | 30103 ft | 478 kts | 284° |
| 2026-05-04 17:56 | 54.78467 | -8.47186 | 30100 ft | 477 kts | 284° |
| 2026-05-04 17:57 | 54.80108 | -8.58319 | 30104 ft | 477 kts | 284° |
| 2026-05-04 17:57 | 54.81731 | -8.69405 | 30105 ft | 476 kts | 284° |
| 2026-05-04 17:58 | 54.83350 | -8.80541 | 30111 ft | 476 kts | 284° |
| 2026-05-04 17:58 | 54.84958 | -8.91675 | 30112 ft | 475 kts | 283° |
| 2026-05-04 17:59 | 54.86554 | -9.02811 | 30111 ft | 475 kts | 283° |
| 2026-05-04 18:00 | 54.88925 | -9.19507 | 30110 ft | 474 kts | 283° |
| 2026-05-04 18:00 | 54.90491 | -9.30633 | 30118 ft | 474 kts | 283° |
| 2026-05-04 18:01 | 54.92048 | -9.41770 | 30117 ft | 474 kts | 283° |
| 2026-05-04 18:01 | 54.93589 | -9.52880 | 30120 ft | 473 kts | 283° |
| 2026-05-04 18:02 | 54.95879 | -9.69545 | 30117 ft | 473 kts | 283° |
| 2026-05-04 18:02 | 54.97395 | -9.80673 | 30116 ft | 473 kts | 283° |
| 2026-05-04 18:03 | 54.98902 | -9.91811 | 30121 ft | 472 kts | 282° |
| 2026-05-04 18:03 | 55.00094 | -10.03039 | 30118 ft | 471 kts | 275° |
| 2026-05-04 18:04 | 55.00339 | -10.14444 | 30121 ft | 470 kts | 271° |
| 2026-05-04 18:05 | 55.00602 | -10.31448 | 30129 ft | 470 kts | 271° |
| 2026-05-04 18:05 | 55.00793 | -10.42823 | 30135 ft | 469 kts | 271° |
| 2026-05-04 18:06 | 55.01073 | -10.59904 | 30130 ft | 469 kts | 271° |
| 2026-05-04 18:06 | 55.01217 | -10.69352 | 30130 ft | 469 kts | 271° |
| 2026-05-04 18:07 | 55.01381 | -10.80716 | 30129 ft | 469 kts | 271° |
| 2026-05-04 18:07 | 55.01534 | -10.92067 | 30132 ft | 469 kts | 271° |
| 2026-05-04 18:08 | 55.01675 | -11.03424 | 30129 ft | 469 kts | 271° |
| 2026-05-04 18:08 | 55.01806 | -11.14728 | 30130 ft | 468 kts | 271° |
| 2026-05-04 18:09 | 55.02037 | -11.37419 | 30133 ft | 468 kts | 270° |
| 2026-05-04 18:10 | 55.02136 | -11.48756 | 30135 ft | 468 kts | 270° |
| 2026-05-04 18:10 | 55.02225 | -11.60095 | 30134 ft | 468 kts | 270° |
| 2026-05-04 18:11 | 55.02304 | -11.71445 | 30139 ft | 467 kts | 270° |
| 2026-05-04 18:11 | 55.02372 | -11.82764 | 30140 ft | 467 kts | 270° |
| 2026-05-04 18:12 | 55.02429 | -11.94098 | 30139 ft | 467 kts | 270° |
| 2026-05-04 18:12 | 55.02476 | -12.05422 | 30145 ft | 467 kts | 270° |
| 2026-05-04 18:13 | 55.02512 | -12.16697 | 30143 ft | 467 kts | 270° |
| 2026-05-04 18:14 | 55.02546 | -12.33701 | 30149 ft | 468 kts | 270° |
| 2026-05-04 18:14 | 55.02556 | -12.45066 | 30150 ft | 468 kts | 270° |
| 2026-05-04 18:15 | 55.02545 | -12.67812 | 30152 ft | 469 kts | 269° |
| 2026-05-04 18:16 | 55.02523 | -12.79121 | 30156 ft | 470 kts | 269° |
| 2026-05-04 18:16 | 55.02491 | -12.90518 | 30156 ft | 470 kts | 269° |
| 2026-05-04 18:17 | 55.02422 | -13.07621 | 30159 ft | 471 kts | 269° |
| 2026-05-04 18:18 | 55.02329 | -13.24786 | 30163 ft | 472 kts | 269° |
| 2026-05-04 18:18 | 55.02254 | -13.36226 | 30162 ft | 472 kts | 269° |
| 2026-05-04 18:19 | 55.02120 | -13.53408 | 30171 ft | 473 kts | 269° |
| 2026-05-04 18:19 | 55.02018 | -13.64819 | 30168 ft | 474 kts | 269° |
| 2026-05-04 18:20 | 55.01905 | -13.76296 | 30172 ft | 474 kts | 269° |
| 2026-05-04 18:20 | 55.01781 | -13.87802 | 30173 ft | 474 kts | 269° |
| 2026-05-04 18:21 | 55.01645 | -13.99312 | 30171 ft | 475 kts | 269° |
| 2026-05-04 18:21 | 55.01499 | -14.10807 | 30176 ft | 475 kts | 269° |
| 2026-05-04 18:22 | 55.01342 | -14.22329 | 30177 ft | 475 kts | 269° |
| 2026-05-04 18:22 | 55.01174 | -14.33848 | 30176 ft | 475 kts | 269° |
| 2026-05-04 18:23 | 55.00996 | -14.45285 | 30178 ft | 476 kts | 269° |
| 2026-05-04 18:23 | 55.00807 | -14.56808 | 30180 ft | 476 kts | 269° |
| 2026-05-04 18:24 | 55.00606 | -14.68344 | 30185 ft | 476 kts | 269° |
| 2026-05-04 18:24 | 55.00396 | -14.79883 | 30187 ft | 476 kts | 268° |
| 2026-05-04 18:25 | 55.00190 | -14.91407 | 30187 ft | 476 kts | 271° |
| 2026-05-04 18:25 | 55.00972 | -15.02852 | 30198 ft | 476 kts | 283° |
| 2026-05-04 18:26 | 55.02977 | -15.13822 | 30213 ft | 475 kts | 291° |
| 2026-05-04 18:26 | 55.05415 | -15.24491 | 30198 ft | 476 kts | 291° |
| 2026-05-04 18:27 | 55.07863 | -15.35245 | 30195 ft | 476 kts | 291° |
| 2026-05-04 18:27 | 55.10271 | -15.46026 | 30194 ft | 476 kts | 291° |
| 2026-05-04 18:28 | 55.12651 | -15.56818 | 30196 ft | 476 kts | 291° |
| 2026-05-04 18:28 | 55.15021 | -15.67635 | 30201 ft | 476 kts | 291° |
| 2026-05-04 18:29 | 55.17375 | -15.78431 | 30204 ft | 475 kts | 291° |
| 2026-05-04 18:29 | 55.19722 | -15.89245 | 30204 ft | 475 kts | 291° |
| 2026-05-04 18:30 | 55.23204 | -16.05394 | 30205 ft | 474 kts | 291° |
| 2026-05-04 18:31 | 55.25518 | -16.16198 | 30206 ft | 474 kts | 291° |
| 2026-05-04 18:31 | 55.27824 | -16.27020 | 30207 ft | 473 kts | 291° |
| 2026-05-04 18:32 | 55.30118 | -16.37848 | 30213 ft | 473 kts | 291° |
| 2026-05-04 18:32 | 55.32409 | -16.48712 | 30213 ft | 473 kts | 290° |
| 2026-05-04 18:33 | 55.34684 | -16.59563 | 30214 ft | 473 kts | 290° |
| 2026-05-04 18:33 | 55.36947 | -16.70418 | 30219 ft | 473 kts | 290° |
| 2026-05-04 18:34 | 55.39202 | -16.81291 | 30218 ft | 473 kts | 290° |
| 2026-05-04 18:34 | 55.41448 | -16.92174 | 30222 ft | 473 kts | 290° |
| 2026-05-04 18:35 | 55.43679 | -17.03050 | 30222 ft | 473 kts | 290° |
| 2026-05-04 18:35 | 55.45891 | -17.13888 | 30220 ft | 472 kts | 290° |
| 2026-05-04 18:36 | 55.48102 | -17.24784 | 30223 ft | 472 kts | 290° |
| 2026-05-04 18:36 | 55.50305 | -17.35699 | 30223 ft | 472 kts | 290° |
| 2026-05-04 18:37 | 55.52501 | -17.46641 | 30226 ft | 472 kts | 290° |
| 2026-05-04 18:37 | 55.54683 | -17.57573 | 30227 ft | 472 kts | 290° |
| 2026-05-04 18:38 | 55.56856 | -17.68521 | 30228 ft | 471 kts | 289° |
| 2026-05-04 18:38 | 55.59002 | -17.79391 | 30233 ft | 471 kts | 289° |
| 2026-05-04 18:39 | 55.61156 | -17.90366 | 30229 ft | 471 kts | 289° |
| 2026-05-04 18:39 | 55.63293 | -18.01314 | 30230 ft | 471 kts | 289° |
| 2026-05-04 18:40 | 55.65427 | -18.12311 | 30232 ft | 472 kts | 289° |
| 2026-05-04 18:40 | 55.67547 | -18.23300 | 30237 ft | 472 kts | 289° |
| 2026-05-04 18:41 | 55.69667 | -18.34348 | 30236 ft | 472 kts | 289° |
| 2026-05-04 18:41 | 55.71774 | -18.45394 | 30242 ft | 473 kts | 289° |
| 2026-05-04 18:42 | 55.73856 | -18.56372 | 30240 ft | 473 kts | 288° |
| 2026-05-04 18:42 | 55.75948 | -18.67463 | 30240 ft | 473 kts | 288° |
| 2026-05-04 18:43 | 55.78028 | -18.78559 | 30245 ft | 474 kts | 288° |
| 2026-05-04 18:43 | 55.80099 | -18.89676 | 30245 ft | 474 kts | 288° |
| 2026-05-04 18:44 | 55.82168 | -19.00843 | 30245 ft | 475 kts | 288° |
| 2026-05-04 18:44 | 55.84226 | -19.12017 | 30248 ft | 475 kts | 288° |
| 2026-05-04 18:45 | 55.86260 | -19.23128 | 30242 ft | 476 kts | 287° |
| 2026-05-04 18:45 | 55.88300 | -19.34344 | 30248 ft | 476 kts | 287° |
| 2026-05-04 18:46 | 55.90332 | -19.45578 | 30242 ft | 476 kts | 287° |
| 2026-05-04 18:46 | 55.92353 | -19.56823 | 30249 ft | 476 kts | 287° |
| 2026-05-04 18:47 | 55.94365 | -19.68080 | 30248 ft | 476 kts | 287° |
| 2026-05-04 18:47 | 55.96367 | -19.79359 | 30251 ft | 476 kts | 287° |
| 2026-05-04 18:48 | 55.98359 | -19.90635 | 30252 ft | 476 kts | 287° |
| 2026-05-04 18:48 | 56.00017 | -20.02060 | 30248 ft | 475 kts | 279° |
| 2026-05-04 18:49 | 56.00618 | -20.13803 | 30252 ft | 475 kts | 274° |
| 2026-05-04 18:49 | 56.01027 | -20.25524 | 30260 ft | 474 kts | 274° |
| 2026-05-04 18:50 | 56.01449 | -20.37309 | 30260 ft | 474 kts | 274° |
| 2026-05-04 18:50 | 56.01879 | -20.49056 | 30261 ft | 473 kts | 274° |
| 2026-05-04 18:51 | 56.02303 | -20.60774 | 30260 ft | 472 kts | 274° |
| 2026-05-04 18:51 | 56.02713 | -20.72403 | 30262 ft | 471 kts | 274° |
| 2026-05-04 18:52 | 56.03113 | -20.84095 | 30260 ft | 470 kts | 274° |
| 2026-05-04 18:52 | 56.03501 | -20.95766 | 30261 ft | 469 kts | 274° |
| 2026-05-04 18:53 | 56.03876 | -21.07398 | 30263 ft | 468 kts | 274° |
| 2026-05-04 18:53 | 56.04238 | -21.18949 | 30266 ft | 466 kts | 274° |
| 2026-05-04 18:54 | 56.04590 | -21.30522 | 30265 ft | 465 kts | 274° |
| 2026-05-04 18:54 | 56.04873 | -21.40119 | 30268 ft | 464 kts | 274° |
| 2026-05-04 18:55 | 56.05203 | -21.51638 | 30273 ft | 463 kts | 274° |
| 2026-05-04 18:55 | 56.05679 | -21.68919 | 30271 ft | 462 kts | 274° |
| 2026-05-04 18:56 | 56.05981 | -21.80404 | 30270 ft | 462 kts | 274° |
| 2026-05-04 18:56 | 56.06273 | -21.91894 | 30276 ft | 462 kts | 273° |
| 2026-05-04 18:57 | 56.06552 | -22.03307 | 30275 ft | 461 kts | 273° |
| 2026-05-04 18:57 | 56.06823 | -22.14774 | 30279 ft | 461 kts | 273° |
| 2026-05-04 18:58 | 56.07082 | -22.26249 | 30282 ft | 461 kts | 273° |
| 2026-05-04 18:58 | 56.07331 | -22.37721 | 30278 ft | 462 kts | 272° |
| 2026-05-04 18:59 | 56.07569 | -22.49208 | 30277 ft | 462 kts | 272° |
| 2026-05-04 18:59 | 56.07798 | -22.60747 | 30288 ft | 463 kts | 272° |
| 2026-05-04 19:00 | 56.08014 | -22.72188 | 30290 ft | 463 kts | 272° |
| 2026-05-04 19:00 | 56.08221 | -22.83730 | 30285 ft | 463 kts | 272° |
| 2026-05-04 19:01 | 56.08418 | -22.95261 | 30280 ft | 464 kts | 272° |
| 2026-05-04 19:01 | 56.08604 | -23.06832 | 30284 ft | 464 kts | 272° |
| 2026-05-04 19:02 | 56.08779 | -23.18380 | 30290 ft | 464 kts | 271° |
| 2026-05-04 19:02 | 56.08943 | -23.29948 | 30286 ft | 465 kts | 271° |
| 2026-05-04 19:03 | 56.09097 | -23.41482 | 30293 ft | 465 kts | 271° |
| 2026-05-04 19:03 | 56.09240 | -23.53063 | 30297 ft | 465 kts | 271° |
| 2026-05-04 19:04 | 56.09372 | -23.64652 | 30289 ft | 465 kts | 271° |
| 2026-05-04 19:04 | 56.09493 | -23.76259 | 30292 ft | 465 kts | 271° |
| 2026-05-04 19:05 | 56.09604 | -23.87845 | 30292 ft | 465 kts | 271° |
| 2026-05-04 19:05 | 56.09704 | -23.99449 | 30297 ft | 465 kts | 270° |
| 2026-05-04 19:06 | 56.09792 | -24.11038 | 30293 ft | 466 kts | 270° |
| 2026-05-04 19:06 | 56.09870 | -24.22580 | 30299 ft | 466 kts | 270° |
| 2026-05-04 19:07 | 56.09937 | -24.34170 | 30298 ft | 465 kts | 270° |
| 2026-05-04 19:07 | 56.09994 | -24.45791 | 30298 ft | 465 kts | 270° |
| 2026-05-04 19:08 | 56.10039 | -24.57386 | 30298 ft | 465 kts | 270° |
| 2026-05-04 19:08 | 56.10074 | -24.68918 | 30310 ft | 465 kts | 270° |
| 2026-05-04 19:09 | 56.10097 | -24.80522 | 30307 ft | 465 kts | 270° |
| 2026-05-04 19:09 | 56.10110 | -24.92121 | 30302 ft | 465 kts | 270° |
| 2026-05-04 19:10 | 56.10112 | -25.03737 | 30311 ft | 465 kts | 269° |
| 2026-05-04 19:10 | 56.10103 | -25.15323 | 30308 ft | 465 kts | 269° |
| 2026-05-04 19:11 | 56.10084 | -25.26925 | 30316 ft | 465 kts | 269° |
| 2026-05-04 19:11 | 56.10053 | -25.38503 | 30303 ft | 465 kts | 269° |
| 2026-05-04 19:12 | 56.09987 | -25.55806 | 30312 ft | 465 kts | 269° |
| 2026-05-04 19:13 | 56.09930 | -25.67394 | 30317 ft | 465 kts | 269° |
| 2026-05-04 19:13 | 56.09861 | -25.78987 | 30318 ft | 465 kts | 269° |
| 2026-05-04 19:14 | 56.09782 | -25.90558 | 30318 ft | 465 kts | 268° |
| 2026-05-04 19:14 | 56.09692 | -26.02137 | 30314 ft | 465 kts | 268° |
| 2026-05-04 19:15 | 56.09591 | -26.13726 | 30319 ft | 465 kts | 268° |
| 2026-05-04 19:15 | 56.09480 | -26.25217 | 30324 ft | 465 kts | 268° |
| 2026-05-04 19:16 | 56.09357 | -26.36864 | 30324 ft | 465 kts | 268° |
| 2026-05-04 19:16 | 56.09223 | -26.48438 | 30325 ft | 465 kts | 268° |
| 2026-05-04 19:17 | 56.09080 | -26.59941 | 30328 ft | 465 kts | 268° |
| 2026-05-04 19:17 | 56.08925 | -26.71507 | 30330 ft | 464 kts | 268° |
| 2026-05-04 19:18 | 56.08760 | -26.83068 | 30333 ft | 464 kts | 267° |
| 2026-05-04 19:18 | 56.08583 | -26.94650 | 30328 ft | 464 kts | 267° |
| 2026-05-04 19:19 | 56.08396 | -27.06192 | 30333 ft | 464 kts | 267° |
| 2026-05-04 19:19 | 56.08198 | -27.17751 | 30331 ft | 464 kts | 267° |
| 2026-05-04 19:20 | 56.07989 | -27.29300 | 30338 ft | 464 kts | 267° |
| 2026-05-04 19:20 | 56.07770 | -27.40866 | 30341 ft | 464 kts | 266° |
| 2026-05-04 19:21 | 56.07541 | -27.52336 | 30338 ft | 464 kts | 266° |
| 2026-05-04 19:21 | 56.07414 | -27.58464 | 30339 ft | 464 kts | 266° |